Time;durP1;ratioP1;P1;durP2;ratioP2;P2;SDS_P1;SDS_P2;PMS_P1;PMS_P2;Temp;Humidity;BMP_temperature;BMP_pressure;BME280_temperature;BME280_humidity;BME280_pressure;Samples;Min_cycle;Max_cycle;Signal;HPM_P1;HPM_P2
2022/02/11 00:08:24;;;;;;;29.80;3.28;;;3.00;99.90;;;;;;5053085;28;20380;-68
2022/02/11 00:10:49;;;;;;;19.45;2.67;;;2.90;99.90;;;;;;5053184;28;20043;-69
2022/02/11 00:13:15;;;;;;;21.55;4.25;;;2.60;99.90;;;;;;5053007;28;20465;-69
2022/02/11 00:15:42;;;;;;;20.83;4.90;;;2.50;99.90;;;;;;5053092;28;20431;-69
2022/02/11 00:18:10;;;;;;;20.60;3.92;;;2.30;99.90;;;;;;5052867;28;20025;-69
2022/02/11 00:20:37;;;;;;;48.78;5.65;;;2.20;99.90;;;;;;5053099;28;20484;-69
2022/02/11 00:23:06;;;;;;;37.53;3.85;;;2.20;99.90;;;;;;5053063;28;20219;-69
2022/02/11 00:25:34;;;;;;;26.95;3.58;;;2.20;99.90;;;;;;5052868;28;20017;-69
2022/02/11 00:28:53;;;;;;;15.73;2.72;;;2.10;99.90;;;;;;5053126;28;20044;-69
2022/02/11 00:33:39;;;;;;;38.95;3.75;;;2.00;99.90;;;;;;5014657;28;20435;-69
2022/02/11 00:36:08;;;;;;;17.73;3.08;;;1.90;99.90;;;;;;5053273;28;20017;-69
2022/02/11 00:45:12;;;;;;;;;;;1.60;99.90;;;;;;5056250;28;20031;-68
2022/02/11 00:53:40;;;;;;;35.50;3.38;;;1.40;99.90;;;;;;5056164;28;20376;-69
2022/02/11 01:05:50;;;;;;;31.98;4.28;;;1.30;99.90;;;;;;5056320;28;20154;-69
2022/02/11 01:08:15;;;;;;;23.90;4.78;;;1.20;99.90;;;;;;5056018;28;20060;-69
2022/02/11 01:10:41;;;;;;;38.40;4.32;;;1.20;99.90;;;;;;5037999;28;20124;-69
2022/02/11 01:13:06;;;;;;;49.92;4.75;;;1.20;99.90;;;;;;5055924;28;20021;-69
2022/02/11 01:15:35;;;;;;;42.33;4.88;;;1.30;99.90;;;;;;5056140;28;20022;-69
2022/02/11 01:18:03;;;;;;;31.75;4.90;;;1.30;99.90;;;;;;5055709;28;20025;-69
2022/02/11 01:31:48;;;;;;;29.38;4.82;;;1.60;99.90;;;;;;5036181;28;20064;-68
2022/02/11 01:50:56;;;;;;;29.08;4.90;;;1.20;99.90;;;;;;5055337;28;20036;-69
2022/02/11 02:10:14;;;;;;;57.53;8.00;;;1.40;99.90;;;;;;5054925;28;20543;-68
2022/02/11 02:13:48;;;;;;;47.08;6.97;;;1.60;99.90;;;;;;5054542;28;20117;-69
2022/02/11 02:21:32;;;;;;;49.88;6.88;;;1.80;99.90;;;;;;5054908;28;20488;-69
2022/02/11 02:23:59;;;;;;;53.08;7.85;;;1.80;99.90;;;;;;5054429;28;20029;-69
2022/02/11 03:14:37;;;;;;;61.95;7.95;;;1.80;99.90;;;;;;4992568;28;20522;-70
2022/02/11 03:48:53;;;;;;;60.83;8.20;;;1.40;99.90;;;;;;5053575;28;20444;-70
2022/02/11 03:54:22;;;;;;;68.35;8.98;;;1.40;99.90;;;;;;5053777;28;20032;-70
2022/02/11 04:08:23;;;;;;;60.75;7.85;;;1.30;99.90;;;;;;5053165;28;20044;-70
2022/02/11 04:22:14;;;;;;;47.88;7.50;;;1.00;99.90;;;;;;5057031;28;20032;-70
2022/02/11 05:00:01;;;;;;;;;;;1.00;99.90;;;;;;5056672;28;20405;-70
2022/02/11 05:02:30;;;;;;;43.03;7.38;;;1.00;99.90;;;;;;5056095;28;19905;-70
2022/02/11 05:04:56;;;;;;;48.58;8.52;;;0.90;99.90;;;;;;5056366;28;20028;-70
2022/02/11 05:07:21;;;;;;;75.75;8.00;;;0.90;99.90;;;;;;5056127;28;20033;-70
2022/02/11 05:09:47;;;;;;;63.83;7.57;;;1.00;99.90;;;;;;5056002;28;20033;-70
2022/02/11 05:12:13;;;;;;;42.30;8.35;;;1.00;99.90;;;;;;5056146;28;20140;-70
2022/02/11 05:14:38;;;;;;;46.22;7.80;;;0.90;99.90;;;;;;5055905;28;20104;-71
2022/02/11 05:17:04;;;;;;;49.22;7.82;;;0.90;99.90;;;;;;5056059;28;20029;-71
2022/02/11 05:19:29;;;;;;;62.83;8.05;;;0.80;99.90;;;;;;5055796;28;20103;-71
2022/02/11 05:21:55;;;;;;;38.17;7.93;;;0.80;99.90;;;;;;5055713;28;20032;-70
2022/02/11 05:24:21;;;;;;;54.60;7.43;;;0.70;99.90;;;;;;5055738;28;20021;-70
2022/02/11 05:26:46;;;;;;;56.80;7.82;;;0.70;99.90;;;;;;5055930;28;20052;-70
2022/02/11 05:29:12;;;;;;;37.67;7.28;;;0.60;99.90;;;;;;5054656;28;20061;-70
2022/02/11 05:31:38;;;;;;;49.58;8.15;;;0.60;99.90;;;;;;5055807;28;20051;-70
2022/02/11 05:34:03;;;;;;;49.53;7.40;;;0.70;99.90;;;;;;5055429;28;20025;-70
2022/02/11 05:36:29;;;;;;;48.03;7.82;;;0.60;99.90;;;;;;5055698;28;20028;-70
2022/02/11 05:38:54;;;;;;;57.83;7.75;;;0.60;99.90;;;;;;5055453;28;20021;-70
2022/02/11 05:41:20;;;;;;;44.17;7.63;;;0.60;99.90;;;;;;5055355;28;20033;-70
2022/02/11 05:43:46;;;;;;;42.28;8.52;;;0.60;99.90;;;;;;5055400;28;20028;-70
2022/02/11 05:46:12;;;;;;;48.88;7.88;;;0.50;99.90;;;;;;5055330;28;20020;-70
2022/02/11 05:48:39;;;;;;;47.70;9.32;;;0.60;99.90;;;;;;5055967;28;20082;-70
2022/02/11 05:51:07;;;;;;;46.03;8.70;;;0.60;99.90;;;;;;5055004;28;20040;-71
2022/02/11 05:53:33;;;;;;;42.75;8.38;;;0.60;99.90;;;;;;5055471;28;20022;-71
2022/02/11 05:55:59;;;;;;;50.83;8.70;;;0.60;99.90;;;;;;5055450;28;20055;-71
2022/02/11 05:58:24;;;;;;;35.03;8.40;;;0.50;99.90;;;;;;5055022;28;20499;-71
2022/02/11 06:00:50;;;;;;;49.00;8.60;;;0.50;99.90;;;;;;5055291;28;20029;-70
2022/02/11 06:03:15;;;;;;;37.13;6.95;;;0.40;99.90;;;;;;5055540;28;20100;-70
2022/02/11 06:05:41;;;;;;;39.67;7.53;;;0.20;99.90;;;;;;5054981;28;20131;-70
2022/02/11 06:08:06;;;;;;;55.13;7.25;;;0.20;99.90;;;;;;5054910;28;20036;-70
2022/02/11 06:10:32;;;;;;;37.65;7.80;;;0.10;99.90;;;;;;5054844;28;20025;-71
2022/02/11 06:12:58;;;;;;;29.27;7.22;;;0.10;99.90;;;;;;5054821;28;20389;-71
2022/02/11 06:15:23;;;;;;;35.47;7.55;;;0.10;99.90;;;;;;5054818;28;20079;-71
2022/02/11 06:17:49;;;;;;;35.42;7.45;;;0.20;99.90;;;;;;5054635;28;20029;-71
2022/02/11 06:20:14;;;;;;;31.58;6.35;;;0.30;99.90;;;;;;5054952;28;20025;-71
2022/02/11 06:22:43;;;;;;;45.80;7.97;;;0.40;99.90;;;;;;5054515;28;20135;-70
2022/02/11 06:25:09;;;;;;;38.28;6.32;;;0.50;99.90;;;;;;5055150;28;20032;-70
2022/02/11 06:27:34;;;;;;;50.10;7.60;;;0.60;99.90;;;;;;5054545;28;20029;-70
2022/02/11 06:30:00;;;;;;;35.63;8.82;;;0.60;99.90;;;;;;5054467;28;20025;-70
2022/02/11 06:32:26;;;;;;;62.45;8.20;;;0.60;99.90;;;;;;5054344;28;20120;-70
2022/02/11 06:34:55;;;;;;;41.33;8.13;;;0.70;99.90;;;;;;5054407;28;20028;-70
2022/02/11 06:37:21;;;;;;;45.20;8.07;;;0.60;99.90;;;;;;5054258;28;20496;-70
2022/02/11 06:39:46;;;;;;;48.75;8.20;;;0.40;99.90;;;;;;5054317;28;20021;-70
2022/02/11 06:42:12;;;;;;;40.00;6.93;;;0.40;99.90;;;;;;5054582;28;20028;-70
2022/02/11 06:44:37;;;;;;;38.60;6.35;;;0.20;99.90;;;;;;5054503;28;20412;-70
2022/02/11 06:47:03;;;;;;;44.63;8.07;;;0.20;99.90;;;;;;5054127;28;20108;-70
2022/02/11 06:49:29;;;;;;;40.72;7.18;;;0.20;99.90;;;;;;5054133;28;20029;-70
2022/02/11 06:51:55;;;;;;;38.58;7.45;;;0.30;99.90;;;;;;5053858;28;20083;-70
2022/02/11 06:54:21;;;;;;;20.60;6.85;;;0.40;99.90;;;;;;5054033;28;20100;-70
2022/02/11 06:56:47;;;;;;;32.30;7.70;;;0.40;99.90;;;;;;5054001;28;20109;-70
2022/02/11 06:59:12;;;;;;;28.83;7.88;;;0.50;99.90;;;;;;5053945;28;20363;-70
2022/02/11 07:01:38;;;;;;;35.30;8.35;;;0.60;99.90;;;;;;5053977;28;20469;-70
2022/02/11 07:04:03;;;;;;;38.60;9.10;;;0.70;99.90;;;;;;5035928;28;20385;-70
2022/02/11 07:06:29;;;;;;;21.38;8.20;;;0.80;99.90;;;;;;5053841;28;20064;-70
2022/02/11 07:08:55;;;;;;;38.33;7.78;;;0.80;99.90;;;;;;5053733;28;20104;-70
2022/02/11 07:11:21;;;;;;;28.83;7.57;;;0.90;99.90;;;;;;5053822;28;20025;-70
2022/02/11 07:13:47;;;;;;;56.47;8.82;;;1.00;99.90;;;;;;5053758;28;20424;-70
2022/02/11 07:16:15;;;;;;;38.65;8.65;;;1.00;99.90;;;;;;5053610;28;20020;-70
2022/02/11 07:18:41;;;;;;;25.42;7.80;;;1.00;99.90;;;;;;5054182;28;20022;-71
2022/02/11 07:21:07;;;;;;;33.42;8.10;;;1.00;99.90;;;;;;5053921;28;20416;-71
2022/02/11 07:23:32;;;;;;;47.00;9.25;;;1.00;99.90;;;;;;5053525;28;20063;-71
2022/02/11 07:25:58;;;;;;;32.13;7.90;;;1.10;99.90;;;;;;5053524;28;20043;-71
2022/02/11 07:28:24;;;;;;;34.25;8.40;;;1.20;99.90;;;;;;5053762;28;20036;-71
2022/02/11 07:30:51;;;;;;;33.10;8.48;;;1.20;99.90;;;;;;5053574;28;20029;-71
2022/02/11 07:33:17;;;;;;;28.50;7.82;;;1.30;99.90;;;;;;5053969;28;20018;-71
2022/02/11 07:35:44;;;;;;;27.08;7.20;;;1.40;99.90;;;;;;5053428;28;20024;-71
2022/02/11 07:38:10;;;;;;;56.25;9.80;;;1.40;99.90;;;;;;5053576;28;20432;-71
2022/02/11 07:40:38;;;;;;;67.25;9.77;;;1.40;99.90;;;;;;5053394;28;20021;-71
2022/02/11 07:43:04;;;;;;;33.35;7.88;;;1.30;99.90;;;;;;5053305;28;20017;-71
2022/02/11 07:45:30;;;;;;;44.00;8.63;;;1.30;99.90;;;;;;5053297;28;20040;-71
2022/02/11 07:47:56;;;;;;;30.85;7.88;;;1.50;99.90;;;;;;5053273;28;20107;-71
2022/02/11 07:50:22;;;;;;;31.00;7.68;;;1.50;99.90;;;;;;5053258;28;20479;-71
2022/02/11 07:52:48;;;;;;;32.38;8.45;;;1.50;99.90;;;;;;5052948;28;20033;-71
2022/02/11 07:55:14;;;;;;;36.28;8.93;;;1.60;99.90;;;;;;5053461;28;20028;-71
2022/02/11 07:57:39;;;;;;;28.80;7.00;;;1.70;99.90;;;;;;5053088;28;20037;-71
2022/02/11 08:00:06;;;;;;;29.27;6.88;;;1.70;99.90;;;;;;5053111;28;20079;-71
2022/02/11 08:02:36;;;;;;;17.27;6.85;;;1.80;99.90;;;;;;5053028;28;20036;-71
2022/02/11 08:05:03;;;;;;;19.20;7.50;;;2.00;99.90;;;;;;5053387;28;20013;-71
2022/02/11 08:07:28;;;;;;;31.63;8.20;;;2.10;99.90;;;;;;5053084;28;20433;-71
2022/02/11 08:09:54;;;;;;;44.42;10.13;;;2.10;99.90;;;;;;5053029;28;20025;-71
2022/02/11 08:12:20;;;;;;;33.55;8.32;;;2.20;99.90;;;;;;5052973;28;20427;-71
2022/02/11 08:14:45;;;;;;;31.88;9.07;;;2.30;99.90;;;;;;5053202;28;20063;-71
2022/02/11 08:17:11;;;;;;;37.63;9.18;;;2.40;99.90;;;;;;5052885;28;20025;-71
2022/02/11 08:19:36;;;;;;;35.10;9.30;;;2.50;99.90;;;;;;5053186;28;20029;-71
2022/02/11 08:22:02;;;;;;;42.38;9.77;;;2.60;99.90;;;;;;5052844;28;20025;-71
2022/02/11 08:24:28;;;;;;;45.72;10.80;;;2.70;99.90;;;;;;5052904;28;20029;-71
2022/02/11 08:26:53;;;;;;;51.88;12.18;;;2.90;99.90;;;;;;5053422;28;20048;-71
2022/02/11 08:29:24;;;;;;;57.40;10.15;;;3.00;99.90;;;;;;5053136;28;20078;-71
2022/02/11 08:31:51;;;;;;;31.25;9.68;;;3.00;99.90;;;;;;5052989;28;20038;-71
2022/02/11 08:34:16;;;;;;;53.55;11.77;;;2.90;99.90;;;;;;5052817;28;20025;-71
2022/02/11 08:36:42;;;;;;;48.80;12.77;;;2.80;99.90;;;;;;5052988;28;20086;-71
2022/02/11 08:39:09;;;;;;;37.80;9.35;;;2.70;99.90;;;;;;5052749;28;20056;-71
2022/02/11 08:41:35;;;;;;;45.85;10.60;;;2.60;99.90;;;;;;5052688;28;20021;-71
2022/02/11 08:44:01;;;;;;;44.47;10.00;;;2.60;99.90;;;;;;5052698;28;20436;-71
2022/02/11 08:46:27;;;;;;;40.03;9.73;;;2.70;99.90;;;;;;5052717;28;20041;-71
2022/02/11 08:48:53;;;;;;;42.75;10.68;;;2.90;99.90;;;;;;5052951;28;20021;-71
2022/02/11 08:51:18;;;;;;;41.33;11.38;;;3.10;99.90;;;;;;5052537;28;20029;-70
2022/02/11 08:53:44;;;;;;;58.47;12.95;;;3.20;99.90;;;;;;5053446;28;20025;-69
2022/02/11 08:56:10;;;;;;;43.45;11.73;;;3.30;99.90;;;;;;5052877;28;20025;-69
2022/02/11 08:58:37;;;;;;;49.13;12.27;;;3.40;99.90;;;;;;5052860;28;20029;-69
2022/02/11 09:01:04;;;;;;;44.90;12.48;;;3.40;99.90;;;;;;5053019;28;20029;-69
2022/02/11 09:03:29;;;;;;;57.33;11.98;;;3.30;99.90;;;;;;5052519;28;20603;-69
2022/02/11 09:05:55;;;;;;;45.15;12.27;;;3.40;99.90;;;;;;5055192;28;20033;-69
2022/02/11 09:08:22;;;;;;;40.35;11.35;;;3.40;99.90;;;;;;5056601;28;20017;-69
2022/02/11 09:10:48;;;;;;;45.75;12.93;;;3.50;99.90;;;;;;5055945;28;20156;-69
2022/02/11 09:13:15;;;;;;;45.90;12.32;;;3.70;99.90;;;;;;5055985;28;20020;-69
2022/02/11 09:15:40;;;;;;;42.40;12.15;;;3.90;99.90;;;;;;5056222;28;20115;-69
2022/02/11 09:18:06;;;;;;;43.53;13.98;;;3.90;99.90;;;;;;5056114;28;20104;-69
2022/02/11 09:20:32;;;;;;;46.30;13.35;;;3.90;99.90;;;;;;5055749;28;20106;-69
2022/02/11 09:22:57;;;;;;;46.90;11.75;;;3.80;99.90;;;;;;5056044;28;20025;-69
2022/02/11 09:25:23;;;;;;;55.58;12.70;;;3.80;99.90;;;;;;5056052;28;20025;-69
2022/02/11 09:27:49;;;;;;;43.65;12.90;;;3.70;99.90;;;;;;5055731;28;20028;-69
2022/02/11 09:30:20;;;;;;;46.67;15.18;;;3.70;99.90;;;;;;5055650;28;20546;-69
2022/02/11 09:32:48;;;;;;;48.95;13.20;;;3.50;99.90;;;;;;5055892;28;20021;-69
2022/02/11 09:35:15;;;;;;;18.73;5.38;;;3.40;99.90;;;;;;5055850;28;20100;-69
2022/02/11 09:37:42;;;;;;;10.82;4.45;;;3.10;99.90;;;;;;5055457;28;20037;-69
2022/02/11 09:40:13;;;;;;;11.77;4.18;;;2.70;99.90;;;;;;5055781;28;20044;-69
2022/02/11 09:42:39;;;;;;;7.78;2.75;;;2.40;99.90;;;;;;5055409;28;20025;-68
2022/02/11 09:45:08;;;;;;;5.30;2.78;;;1.90;99.90;;;;;;5055336;28;20048;-68
2022/02/11 09:47:34;;;;;;;6.60;2.42;;;1.50;99.90;;;;;;5055516;28;20071;-68
2022/02/11 09:50:00;;;;;;;7.75;2.15;;;1.30;99.90;;;;;;5055561;28;20107;-68
2022/02/11 09:52:29;;;;;;;90.68;34.63;;;1.20;99.90;;;;;;5055172;28;20447;-68
2022/02/11 09:55:31;;;;;;;22.15;8.27;;;1.10;99.90;;;;;;5055216;28;20079;-68
2022/02/11 09:57:42;;;;;;;27.92;10.18;;;1.20;99.90;;;;;;5054851;28;20036;-68
2022/02/11 10:00:12;;;;;;;42.38;17.77;;;1.20;99.90;;;;;;5055077;28;20477;-68
2022/02/11 10:02:53;;;;;;;49.25;8.35;;;1.30;99.90;;;;;;5055018;28;20029;-68
2022/02/11 10:05:25;;;;;;;21.48;4.10;;;1.40;99.90;;;;;;5055212;28;20028;-68
2022/02/11 10:07:51;;;;;;;38.83;7.25;;;1.60;99.90;;;;;;5055290;28;20036;-68
2022/02/11 10:10:38;;;;;;;24.95;6.10;;;1.80;99.90;;;;;;5054947;28;20099;-68
2022/02/11 10:13:04;;;;;;;15.90;3.75;;;2.00;99.90;;;;;;5054717;28;20036;-68
2022/02/11 10:15:30;;;;;;;15.90;4.47;;;2.20;99.90;;;;;;5054320;28;20033;-69
2022/02/11 10:17:58;;;;;;;18.40;4.63;;;2.20;99.90;;;;;;5055223;28;20488;-69
2022/02/11 10:20:24;;;;;;;39.28;7.13;;;2.30;99.90;;;;;;5054882;28;20025;-69
2022/02/11 10:22:49;;;;;;;13.02;2.55;;;2.30;99.90;;;;;;5054698;28;20155;-69
2022/02/11 10:25:15;;;;;;;10.13;3.78;;;2.50;99.90;;;;;;5054646;28;20532;-69
2022/02/11 10:27:41;;;;;;;7.00;2.75;;;2.60;99.90;;;;;;5054594;28;20420;-69
2022/02/11 10:30:09;;;;;;;6.43;2.85;;;2.80;99.90;;;;;;5054798;28;20082;-69
2022/02/11 10:32:49;;;;;;;10.65;2.30;;;2.80;99.90;;;;;;5054342;28;20035;-69
2022/02/11 10:35:17;;;;;;;14.55;3.50;;;2.80;99.90;;;;;;5036591;28;20055;-69
2022/02/11 10:38:05;;;;;;;10.80;3.83;;;3.00;99.90;;;;;;5054301;28;20104;-69
2022/02/11 10:40:33;;;;;;;11.18;4.13;;;3.10;99.90;;;;;;5054406;28;20025;-69
2022/02/11 10:42:58;;;;;;;11.98;2.70;;;3.20;99.90;;;;;;5054572;28;20428;-69
2022/02/11 10:45:39;;;;;;;9.68;2.40;;;3.20;99.90;;;;;;5054227;28;20032;-69
2022/02/11 10:48:14;;;;;;;12.20;2.75;;;3.20;99.90;;;;;;5054694;28;20021;-69
2022/02/11 10:50:44;;;;;;;12.15;2.72;;;3.30;99.90;;;;;;5054228;28;20112;-69
2022/02/11 10:53:10;;;;;;;13.40;2.47;;;3.50;99.90;;;;;;5054409;28;20029;-69
2022/02/11 10:55:47;;;;;;;10.63;2.05;;;3.50;99.90;;;;;;5054329;28;20450;-69
2022/02/11 10:58:18;;;;;;;17.25;2.03;;;3.60;99.90;;;;;;5053928;28;20064;-69
2022/02/11 11:00:44;;;;;;;21.83;3.00;;;3.70;99.90;;;;;;5036053;28;20021;-69
2022/02/11 11:03:10;;;;;;;7.03;1.95;;;3.80;99.90;;;;;;5054172;28;20036;-69
2022/02/11 11:05:40;;;;;;;8.15;2.22;;;3.90;99.90;;;;;;5054006;28;20021;-69
2022/02/11 11:08:10;;;;;;;10.38;2.22;;;4.00;99.90;;;;;;5054152;28;20071;-69
2022/02/11 11:10:39;;;;;;;8.10;2.10;;;3.90;99.90;;;;;;5054076;28;20086;-69
2022/02/11 11:13:08;;;;;;;11.60;1.98;;;3.90;99.90;;;;;;5053736;28;20032;-69
2022/02/11 11:15:34;;;;;;;12.73;1.98;;;3.70;99.90;;;;;;5053684;28;20029;-69
2022/02/11 11:18:05;;;;;;;17.17;2.55;;;3.70;99.90;;;;;;5053619;28;20037;-69
2022/02/11 11:20:33;;;;;;;10.63;2.60;;;3.90;99.90;;;;;;5053582;28;20046;-69
2022/02/11 11:23:02;;;;;;;14.88;2.13;;;4.00;99.90;;;;;;5054144;28;20148;-69
2022/02/11 11:25:54;;;;;;;13.68;2.75;;;4.00;99.90;;;;;;5053574;28;20100;-69
2022/02/11 11:28:39;;;;;;;14.75;2.25;;;4.10;99.90;;;;;;5052739;28;20017;-69
2022/02/11 11:31:15;;;;;;;11.27;2.25;;;4.40;99.90;;;;;;5053688;28;20075;-69
2022/02/11 11:33:41;;;;;;;13.50;2.10;;;4.30;99.90;;;;;;5053443;28;20033;-69
2022/02/11 11:36:10;;;;;;;9.10;2.00;;;4.50;99.90;;;;;;5053659;28;20079;-69
2022/02/11 11:38:59;;;;;;;12.82;2.33;;;4.60;99.90;;;;;;5053309;28;20021;-69
2022/02/11 11:41:33;;;;;;;6.22;2.20;;;4.70;99.90;;;;;;5040523;28;20086;-69
2022/02/11 11:44:14;;;;;;;15.60;3.20;;;4.80;99.90;;;;;;5053365;28;20428;-69
2022/02/11 11:46:47;;;;;;;14.68;2.15;;;4.80;99.90;;;;;;5053523;28;20032;-69
2022/02/11 11:49:15;;;;;;;8.88;1.90;;;4.70;99.90;;;;;;5053571;28;20025;-69
2022/02/11 11:51:40;;;;;;;16.90;1.92;;;4.90;99.90;;;;;;5052938;28;20044;-69
2022/02/11 11:56:59;;;;;;;8.23;1.80;;;5.00;99.90;;;;;;5053390;28;20040;-69
2022/02/11 11:59:30;;;;;;;8.25;1.80;;;5.10;99.90;;;;;;5054035;28;20409;-69
2022/02/11 12:02:10;;;;;;;11.75;2.08;;;5.10;99.90;;;;;;5053297;28;20017;-69
2022/02/11 12:04:49;;;;;;;12.82;2.13;;;5.30;99.90;;;;;;5053234;28;20021;-69
2022/02/11 12:07:20;;;;;;;6.40;1.65;;;5.40;99.90;;;;;;5053174;28;20135;-70
2022/02/11 12:09:50;;;;;;;10.68;2.08;;;5.40;99.90;;;;;;5053382;28;20477;-70
2022/02/11 12:12:19;;;;;;;14.25;2.00;;;5.50;99.90;;;;;;5052975;28;20374;-69
2022/02/11 12:14:46;;;;;;;13.02;2.65;;;5.40;99.90;;;;;;5053028;28;20139;-69
2022/02/11 12:17:17;;;;;;;6.88;1.73;;;5.30;99.90;;;;;;5052949;28;20021;-69
2022/02/11 12:19:44;;;;;;;5.97;1.42;;;5.40;99.90;;;;;;5053233;28;20057;-69
2022/02/11 12:22:11;;;;;;;9.82;1.92;;;5.40;99.90;;;;;;5053022;28;20037;-69
2022/02/11 12:27:24;;;;;;;8.68;1.42;;;5.40;99.90;;;;;;5052977;28;20040;-70
2022/02/11 12:30:16;;;;;;;4.55;1.48;;;5.60;99.90;;;;;;5052886;28;20028;-70
2022/02/11 12:32:46;;;;;;;14.20;1.75;;;5.80;99.90;;;;;;5052784;28;20025;-70
2022/02/11 12:35:15;;;;;;;11.70;1.98;;;5.90;99.90;;;;;;5052821;28;20074;-70
2022/02/11 12:37:42;;;;;;;7.55;1.83;;;5.90;99.90;;;;;;5052736;28;20025;-70
2022/02/11 12:40:18;;;;;;;10.48;1.92;;;5.90;99.90;;;;;;5056060;28;20025;-70
2022/02/11 12:42:46;;;;;;;12.68;1.73;;;5.80;99.90;;;;;;5056540;28;20433;-70
2022/02/11 12:45:15;;;;;;;8.40;1.92;;;5.90;99.90;;;;;;5057087;28;20446;-70
2022/02/11 12:47:41;;;;;;;10.90;2.35;;;6.00;99.90;;;;;;5056755;28;20029;-70
2022/02/11 12:50:11;;;;;;;7.65;1.50;;;6.30;99.90;;;;;;5057018;28;20624;-70
2022/02/11 12:52:38;;;;;;;10.88;2.45;;;6.50;99.90;;;;;;5056247;28;20036;-70
2022/02/11 12:55:16;;;;;;;20.52;2.22;;;6.50;99.90;;;;;;5056384;28;20021;-70
2022/02/11 12:57:50;;;;;;;10.18;2.08;;;6.60;99.90;;;;;;5056325;28;20021;-70
2022/02/11 13:00:16;;;;;;;;;;;6.70;99.90;;;;;;5057104;28;20025;-70
2022/02/11 13:02:43;;;;;;;12.68;1.90;;;6.60;99.90;;;;;;5056178;28;20414;-70
2022/02/11 13:05:20;;;;;;;12.45;1.77;;;6.60;99.90;;;;;;5056179;28;20029;-70
2022/02/11 13:07:50;;;;;;;13.50;1.80;;;6.80;99.90;;;;;;5056444;28;20032;-70
2022/02/11 13:10:24;;;;;;;15.40;2.50;;;7.20;99.90;;;;;;5056691;28;20025;-70
2022/02/11 13:12:54;;;;;;;12.05;1.65;;;7.20;99.90;;;;;;5056093;28;20025;-70
2022/02/11 13:15:20;;;;;;;18.65;1.60;;;7.10;99.90;;;;;;5056283;28;20438;-70
2022/02/11 13:17:48;;;;;;;17.23;2.05;;;7.20;99.90;;;;;;5056412;28;20428;-70
2022/02/11 13:20:22;;;;;;;12.57;1.83;;;7.40;99.90;;;;;;5055933;28;20017;-70
2022/02/11 13:22:51;;;;;;;13.35;2.22;;;7.50;99.90;;;;;;5055837;28;20029;-70
2022/02/11 13:25:18;;;;;;;5.15;1.75;;;7.30;99.90;;;;;;5055820;28;20025;-70
2022/02/11 13:27:52;;;;;;;10.00;1.90;;;7.20;99.90;;;;;;5055781;28;20027;-70
2022/02/11 13:30:30;;;;;;;14.80;1.90;;;7.40;99.90;;;;;;5055703;28;20071;-70
2022/02/11 13:32:58;;;;;;;17.20;2.28;;;7.90;99.90;;;;;;5055678;28;20120;-70
2022/02/11 13:35:24;;;;;;;8.93;2.20;;;7.80;99.90;;;;;;5056150;28;20036;-70
2022/02/11 13:37:53;;;;;;;9.40;1.88;;;7.60;99.90;;;;;;5055480;28;20074;-70
2022/02/11 13:40:24;;;;;;;14.35;2.63;;;7.30;99.90;;;;;;5055962;28;20021;-70
2022/02/11 13:43:07;;;;;;;14.45;2.47;;;7.10;99.90;;;;;;5055771;28;20025;-70
2022/02/11 13:45:55;;;;;;;23.63;2.20;;;7.00;99.90;;;;;;5055734;28;20060;-70
2022/02/11 13:48:23;;;;;;;13.65;2.38;;;7.00;99.90;;;;;;5055398;28;20029;-70
2022/02/11 13:51:05;;;;;;;13.45;2.88;;;6.90;99.90;;;;;;5054257;28;20500;-70
2022/02/11 13:53:49;;;;;;;10.40;2.05;;;7.30;99.90;;;;;;5055546;28;20029;-70
2022/02/11 13:56:19;;;;;;;17.73;2.80;;;6.90;99.90;;;;;;5055797;28;20381;-70
2022/02/11 13:59:06;;;;;;;18.08;2.85;;;6.70;99.90;;;;;;5055089;28;20039;-70
2022/02/11 14:01:35;;;;;;;17.88;2.38;;;6.50;99.90;;;;;;5037623;28;20021;-70
2022/02/11 14:04:06;;;;;;;21.13;2.40;;;6.70;99.90;;;;;;5055067;28;20393;-70
2022/02/11 14:06:38;;;;;;;17.35;1.85;;;6.60;99.90;;;;;;5055206;28;20100;-70
2022/02/11 14:09:08;;;;;;;5.82;2.00;;;6.50;99.90;;;;;;5055533;28;20021;-70
2022/02/11 14:11:38;;;;;;;13.07;3.00;;;6.50;99.90;;;;;;5055032;28;20116;-69
2022/02/11 14:14:12;;;;;;;7.35;1.80;;;6.60;99.90;;;;;;5055123;28;20484;-70
2022/02/11 14:16:38;;;;;;;9.70;1.30;;;6.70;99.90;;;;;;5055078;28;20428;-70
2022/02/11 14:19:03;;;;;;;12.93;2.08;;;6.80;99.90;;;;;;5054794;28;20021;-70
2022/02/11 14:21:29;;;;;;;29.15;2.05;;;6.80;99.90;;;;;;5054677;28;20049;-70
2022/02/11 14:23:54;;;;;;;9.38;1.90;;;6.80;99.90;;;;;;5054677;28;20017;-70
2022/02/11 14:26:20;;;;;;;9.25;1.75;;;6.90;99.90;;;;;;5054667;28;20545;-70
2022/02/11 14:28:45;;;;;;;11.15;1.88;;;6.40;99.90;;;;;;5054578;28;20033;-70
2022/02/11 14:31:11;;;;;;;16.70;1.60;;;6.40;99.90;;;;;;5054845;28;20033;-70
2022/02/11 14:33:37;;;;;;;16.25;3.10;;;6.50;99.90;;;;;;5054502;28;20112;-70
2022/02/11 14:36:03;;;;;;;12.55;1.65;;;6.50;99.90;;;;;;5055001;28;20029;-70
2022/02/11 14:38:29;;;;;;;13.43;2.17;;;6.60;99.90;;;;;;5054623;28;20476;-70
2022/02/11 14:43:38;;;;;;;11.43;2.08;;;6.60;99.90;;;;;;5054361;28;20402;-70
2022/02/11 14:46:04;;;;;;;13.40;2.22;;;6.80;99.90;;;;;;5054277;28;20018;-70
2022/02/11 14:48:30;;;;;;;16.63;2.38;;;6.80;99.90;;;;;;5054260;28;20029;-70
2022/02/11 14:50:55;;;;;;;8.45;2.08;;;6.40;99.90;;;;;;5053967;28;20400;-70
2022/02/11 14:53:21;;;;;;;10.00;1.77;;;6.40;99.90;;;;;;5054944;28;20029;-71
2022/02/11 14:55:46;;;;;;;7.72;1.60;;;6.50;99.90;;;;;;5054605;28;20037;-71
2022/02/11 14:58:12;;;;;;;10.02;1.80;;;6.50;99.90;;;;;;5053999;28;20017;-71
2022/02/11 15:00:39;;;;;;;10.80;2.70;;;6.50;99.90;;;;;;5053920;28;20114;-70
2022/02/11 15:03:04;;;;;;;10.98;2.28;;;6.60;99.90;;;;;;5053893;28;20108;-71
2022/02/11 15:05:30;;;;;;;18.92;2.30;;;6.50;99.90;;;;;;5053931;28;20061;-71
2022/02/11 15:07:55;;;;;;;7.88;2.22;;;6.40;99.90;;;;;;5053847;28;20052;-71
2022/02/11 15:10:22;;;;;;;14.80;2.40;;;6.30;99.90;;;;;;5053831;28;20065;-71
2022/02/11 15:12:47;;;;;;;8.77;1.63;;;6.40;99.90;;;;;;5053810;28;20541;-71
2022/02/11 15:15:13;;;;;;;19.33;2.28;;;6.30;99.90;;;;;;5053762;28;20068;-71
2022/02/11 15:17:39;;;;;;;12.73;2.20;;;6.20;99.90;;;;;;5053744;28;20474;-71
2022/02/11 15:20:05;;;;;;;14.23;2.55;;;6.20;99.90;;;;;;5053651;28;20473;-71
2022/02/11 15:22:30;;;;;;;18.00;2.30;;;6.20;99.90;;;;;;5053567;28;20504;-71
2022/02/11 15:24:57;;;;;;;21.95;2.50;;;6.10;99.90;;;;;;5053541;28;20025;-71
2022/02/11 15:27:23;;;;;;;9.23;2.13;;;6.10;99.90;;;;;;5053550;28;20099;-71
2022/02/11 15:29:48;;;;;;;12.80;2.50;;;5.90;99.90;;;;;;5053820;28;20108;-71
2022/02/11 15:32:14;;;;;;;13.98;2.33;;;5.80;99.90;;;;;;5053496;28;20037;-71
2022/02/11 15:34:40;;;;;;;18.27;2.53;;;5.90;99.90;;;;;;5053546;28;20028;-71
2022/02/11 15:37:06;;;;;;;22.40;3.67;;;5.80;99.90;;;;;;5053336;28;20035;-71
2022/02/11 15:39:33;;;;;;;12.20;2.45;;;5.60;99.90;;;;;;5053664;28;20025;-71
2022/02/11 15:41:58;;;;;;;13.70;2.80;;;5.50;99.90;;;;;;5053318;28;20025;-70
2022/02/11 15:44:24;;;;;;;15.45;2.72;;;5.10;99.90;;;;;;5053633;28;20025;-71
2022/02/11 15:46:50;;;;;;;14.93;2.17;;;5.00;99.90;;;;;;5053272;28;20056;-71
2022/02/11 15:49:15;;;;;;;16.85;2.55;;;4.80;99.90;;;;;;5053268;28;20029;-71
2022/02/11 15:51:41;;;;;;;15.93;3.42;;;4.80;99.90;;;;;;5053046;28;20500;-71
2022/02/11 15:54:07;;;;;;;32.72;3.08;;;4.70;99.90;;;;;;5053237;28;20036;-70
2022/02/11 15:56:32;;;;;;;21.42;2.92;;;4.60;99.90;;;;;;5053171;28;20104;-70
2022/02/11 15:58:58;;;;;;;20.55;3.53;;;4.30;99.90;;;;;;5053153;28;20481;-70
2022/02/11 16:01:23;;;;;;;14.77;2.10;;;4.10;99.90;;;;;;5053577;28;20382;-70
2022/02/11 16:03:49;;;;;;;10.35;2.10;;;4.00;99.90;;;;;;5053660;28;20025;-70
2022/02/11 16:06:15;;;;;;;15.70;2.55;;;3.80;99.90;;;;;;5053138;28;20017;-70
2022/02/11 16:08:40;;;;;;;10.48;2.15;;;3.70;99.90;;;;;;5053634;28;20037;-71
2022/02/11 16:11:06;;;;;;;13.07;2.00;;;3.60;99.90;;;;;;5053007;28;20032;-70
2022/02/11 16:13:32;;;;;;;23.23;2.67;;;3.50;99.90;;;;;;5053732;28;20056;-70
2022/02/11 16:15:58;;;;;;;12.90;2.33;;;3.50;99.90;;;;;;5039217;28;20021;-70
2022/02/11 16:18:23;;;;;;;21.45;1.67;;;3.40;99.90;;;;;;5056916;28;20143;-70
2022/02/11 16:20:50;;;;;;;14.85;2.35;;;3.40;99.90;;;;;;5057487;28;20021;-70
2022/02/11 16:23:17;;;;;;;10.63;2.35;;;3.30;99.90;;;;;;5056927;28;20040;-70
2022/02/11 16:25:45;;;;;;;19.17;3.17;;;3.30;99.90;;;;;;5056894;28;20108;-70
2022/02/11 16:28:12;;;;;;;18.60;3.33;;;3.20;99.90;;;;;;5057328;28;20036;-70
2022/02/11 16:30:39;;;;;;;19.90;3.60;;;3.20;99.90;;;;;;5057339;28;20476;-70
2022/02/11 16:33:06;;;;;;;26.95;8.27;;;3.20;99.90;;;;;;5056784;28;20041;-70
2022/02/11 16:35:34;;;;;;;29.50;4.80;;;3.10;99.90;;;;;;5056747;28;20039;-70
2022/02/11 16:38:01;;;;;;;15.45;2.63;;;3.00;99.90;;;;;;5056909;28;20052;-70
2022/02/11 16:40:27;;;;;;;16.13;2.53;;;3.00;99.90;;;;;;5056876;28;20043;-70
2022/02/11 16:42:53;;;;;;;14.63;2.75;;;2.80;99.90;;;;;;5056649;28;20017;-70
2022/02/11 16:45:19;;;;;;;9.55;2.58;;;2.90;99.90;;;;;;5056761;28;20041;-70